sensor_id;sensor_type;location;lat;lon;timestamp;P1;durP1;ratioP1;P2;durP2;ratioP2
66830;SDS011;53739;44.224;22.528;2024-01-15T00:01:21;214.27;;;86.82;;
66830;SDS011;53739;44.224;22.528;2024-01-15T00:03:47;156.20;;;67.53;;
66830;SDS011;53739;44.224;22.528;2024-01-15T00:06:13;126.72;;;57.38;;
66830;SDS011;53739;44.224;22.528;2024-01-15T00:08:40;212.90;;;91.95;;
66830;SDS011;53739;44.224;22.528;2024-01-15T00:11:06;149.15;;;69.00;;
66830;SDS011;53739;44.224;22.528;2024-01-15T00:13:32;122.10;;;54.08;;
66830;SDS011;53739;44.224;22.528;2024-01-15T00:15:58;122.85;;;53.55;;
66830;SDS011;53739;44.224;22.528;2024-01-15T00:18:24;112.88;;;53.42;;
66830;SDS011;53739;44.224;22.528;2024-01-15T00:20:50;125.47;;;56.47;;
66830;SDS011;53739;44.224;22.528;2024-01-15T00:23:16;225.60;;;93.10;;
66830;SDS011;53739;44.224;22.528;2024-01-15T00:25:42;225.32;;;89.55;;
66830;SDS011;53739;44.224;22.528;2024-01-15T00:28:08;143.32;;;61.65;;
66830;SDS011;53739;44.224;22.528;2024-01-15T00:30:34;106.43;;;50.00;;
66830;SDS011;53739;44.224;22.528;2024-01-15T00:33:00;102.47;;;45.13;;
66830;SDS011;53739;44.224;22.528;2024-01-15T00:35:27;112.03;;;48.15;;
66830;SDS011;53739;44.224;22.528;2024-01-15T00:37:53;102.13;;;47.53;;
66830;SDS011;53739;44.224;22.528;2024-01-15T00:40:19;114.47;;;49.90;;
66830;SDS011;53739;44.224;22.528;2024-01-15T00:42:45;223.27;;;90.25;;
66830;SDS011;53739;44.224;22.528;2024-01-15T00:45:11;160.85;;;71.68;;
66830;SDS011;53739;44.224;22.528;2024-01-15T00:47:37;130.90;;;58.08;;
66830;SDS011;53739;44.224;22.528;2024-01-15T00:50:03;157.10;;;69.88;;
66830;SDS011;53739;44.224;22.528;2024-01-15T00:52:30;134.45;;;53.83;;
66830;SDS011;53739;44.224;22.528;2024-01-15T00:54:56;189.52;;;78.32;;
66830;SDS011;53739;44.224;22.528;2024-01-15T00:57:22;135.32;;;59.15;;
66830;SDS011;53739;44.224;22.528;2024-01-15T00:59:48;127.40;;;55.92;;
66830;SDS011;53739;44.224;22.528;2024-01-15T01:02:14;157.52;;;65.35;;
66830;SDS011;53739;44.224;22.528;2024-01-15T01:04:40;129.18;;;53.88;;
66830;SDS011;53739;44.224;22.528;2024-01-15T01:07:06;117.57;;;47.58;;
66830;SDS011;53739;44.224;22.528;2024-01-15T01:09:32;144.15;;;50.58;;
66830;SDS011;53739;44.224;22.528;2024-01-15T01:11:58;161.25;;;67.75;;
66830;SDS011;53739;44.224;22.528;2024-01-15T01:14:25;166.02;;;68.95;;
66830;SDS011;53739;44.224;22.528;2024-01-15T01:16:51;201.40;;;86.72;;
66830;SDS011;53739;44.224;22.528;2024-01-15T01:19:17;188.07;;;79.53;;
66830;SDS011;53739;44.224;22.528;2024-01-15T01:21:43;179.25;;;85.07;;
66830;SDS011;53739;44.224;22.528;2024-01-15T01:24:09;112.43;;;55.40;;
66830;SDS011;53739;44.224;22.528;2024-01-15T01:26:35;107.38;;;49.80;;
66830;SDS011;53739;44.224;22.528;2024-01-15T01:29:01;124.00;;;51.17;;
66830;SDS011;53739;44.224;22.528;2024-01-15T01:31:27;89.55;;;42.08;;
66830;SDS011;53739;44.224;22.528;2024-01-15T01:33:53;88.95;;;36.95;;
66830;SDS011;53739;44.224;22.528;2024-01-15T01:36:19;65.78;;;29.10;;
66830;SDS011;53739;44.224;22.528;2024-01-15T01:38:46;108.93;;;48.50;;
66830;SDS011;53739;44.224;22.528;2024-01-15T01:41:12;115.25;;;51.80;;
66830;SDS011;53739;44.224;22.528;2024-01-15T01:43:38;119.78;;;53.85;;
66830;SDS011;53739;44.224;22.528;2024-01-15T01:46:04;110.55;;;48.90;;
66830;SDS011;53739;44.224;22.528;2024-01-15T01:48:31;164.32;;;68.03;;
66830;SDS011;53739;44.224;22.528;2024-01-15T01:50:57;172.68;;;69.53;;
66830;SDS011;53739;44.224;22.528;2024-01-15T01:53:25;152.10;;;60.95;;
66830;SDS011;53739;44.224;22.528;2024-01-15T01:55:52;126.38;;;53.08;;
66830;SDS011;53739;44.224;22.528;2024-01-15T01:58:19;200.30;;;80.78;;
66830;SDS011;53739;44.224;22.528;2024-01-15T02:00:46;170.27;;;71.68;;
66830;SDS011;53739;44.224;22.528;2024-01-15T02:03:12;159.27;;;65.35;;
66830;SDS011;53739;44.224;22.528;2024-01-15T02:05:39;114.85;;;54.17;;
66830;SDS011;53739;44.224;22.528;2024-01-15T02:08:05;107.07;;;45.05;;
66830;SDS011;53739;44.224;22.528;2024-01-15T02:10:32;115.28;;;51.53;;
66830;SDS011;53739;44.224;22.528;2024-01-15T02:12:58;106.75;;;38.83;;
66830;SDS011;53739;44.224;22.528;2024-01-15T02:15:24;101.32;;;43.53;;
66830;SDS011;53739;44.224;22.528;2024-01-15T02:17:57;93.28;;;38.33;;
66830;SDS011;53739;44.224;22.528;2024-01-15T02:20:23;84.03;;;40.17;;
66830;SDS011;53739;44.224;22.528;2024-01-15T02:22:50;92.47;;;41.80;;
66830;SDS011;53739;44.224;22.528;2024-01-15T02:25:17;72.55;;;34.33;;
66830;SDS011;53739;44.224;22.528;2024-01-15T02:27:44;82.55;;;36.88;;
66830;SDS011;53739;44.224;22.528;2024-01-15T02:30:13;76.00;;;33.03;;
66830;SDS011;53739;44.224;22.528;2024-01-15T02:32:39;67.10;;;30.73;;
66830;SDS011;53739;44.224;22.528;2024-01-15T02:35:05;63.45;;;29.85;;
66830;SDS011;53739;44.224;22.528;2024-01-15T02:37:32;94.63;;;44.22;;
66830;SDS011;53739;44.224;22.528;2024-01-15T02:39:58;89.97;;;40.08;;
66830;SDS011;53739;44.224;22.528;2024-01-15T02:42:26;85.80;;;34.85;;
66830;SDS011;53739;44.224;22.528;2024-01-15T02:44:52;84.50;;;34.72;;
66830;SDS011;53739;44.224;22.528;2024-01-15T02:47:18;86.70;;;34.67;;
66830;SDS011;53739;44.224;22.528;2024-01-15T02:49:44;87.05;;;34.67;;
66830;SDS011;53739;44.224;22.528;2024-01-15T02:52:10;87.72;;;37.33;;
66830;SDS011;53739;44.224;22.528;2024-01-15T02:54:36;100.75;;;44.75;;
66830;SDS011;53739;44.224;22.528;2024-01-15T02:57:02;124.68;;;48.95;;
66830;SDS011;53739;44.224;22.528;2024-01-15T02:59:28;124.00;;;50.15;;
66830;SDS011;53739;44.224;22.528;2024-01-15T03:01:54;139.43;;;53.63;;
66830;SDS011;53739;44.224;22.528;2024-01-15T03:04:20;127.13;;;50.80;;
66830;SDS011;53739;44.224;22.528;2024-01-15T03:06:47;106.85;;;44.17;;
66830;SDS011;53739;44.224;22.528;2024-01-15T03:09:13;86.80;;;36.97;;
66830;SDS011;53739;44.224;22.528;2024-01-15T03:11:39;82.68;;;35.80;;
66830;SDS011;53739;44.224;22.528;2024-01-15T03:14:05;64.70;;;28.27;;
66830;SDS011;53739;44.224;22.528;2024-01-15T03:16:31;71.20;;;30.67;;
66830;SDS011;53739;44.224;22.528;2024-01-15T03:18:57;61.90;;;28.42;;
66830;SDS011;53739;44.224;22.528;2024-01-15T03:21:23;49.03;;;23.67;;
66830;SDS011;53739;44.224;22.528;2024-01-15T03:23:49;48.05;;;22.17;;
66830;SDS011;53739;44.224;22.528;2024-01-15T03:26:16;41.17;;;18.90;;
66830;SDS011;53739;44.224;22.528;2024-01-15T03:28:42;50.00;;;23.95;;
66830;SDS011;53739;44.224;22.528;2024-01-15T03:31:08;44.33;;;22.85;;
66830;SDS011;53739;44.224;22.528;2024-01-15T03:33:34;42.58;;;19.38;;
66830;SDS011;53739;44.224;22.528;2024-01-15T03:36:00;44.25;;;20.58;;
66830;SDS011;53739;44.224;22.528;2024-01-15T03:38:27;54.47;;;23.08;;
66830;SDS011;53739;44.224;22.528;2024-01-15T03:40:54;49.15;;;25.33;;
66830;SDS011;53739;44.224;22.528;2024-01-15T03:43:20;45.88;;;24.80;;
66830;SDS011;53739;44.224;22.528;2024-01-15T03:45:46;39.83;;;20.92;;
66830;SDS011;53739;44.224;22.528;2024-01-15T03:48:12;61.35;;;24.80;;
66830;SDS011;53739;44.224;22.528;2024-01-15T03:50:38;43.67;;;19.30;;
66830;SDS011;53739;44.224;22.528;2024-01-15T03:53:04;42.35;;;18.52;;
66830;SDS011;53739;44.224;22.528;2024-01-15T03:55:30;37.15;;;18.42;;
66830;SDS011;53739;44.224;22.528;2024-01-15T03:57:56;47.88;;;20.25;;
66830;SDS011;53739;44.224;22.528;2024-01-15T04:00:22;49.85;;;24.17;;
66830;SDS011;53739;44.224;22.528;2024-01-15T04:02:49;49.30;;;22.30;;
66830;SDS011;53739;44.224;22.528;2024-01-15T04:05:15;42.45;;;19.88;;
66830;SDS011;53739;44.224;22.528;2024-01-15T04:07:41;47.45;;;20.55;;
66830;SDS011;53739;44.224;22.528;2024-01-15T04:10:07;43.97;;;21.27;;
66830;SDS011;53739;44.224;22.528;2024-01-15T04:12:33;53.88;;;24.13;;
66830;SDS011;53739;44.224;22.528;2024-01-15T04:14:59;64.25;;;29.63;;
66830;SDS011;53739;44.224;22.528;2024-01-15T04:17:26;70.72;;;31.25;;
66830;SDS011;53739;44.224;22.528;2024-01-15T04:19:53;72.32;;;29.58;;
66830;SDS011;53739;44.224;22.528;2024-01-15T04:22:19;70.03;;;30.58;;
66830;SDS011;53739;44.224;22.528;2024-01-15T04:24:46;61.40;;;29.15;;
66830;SDS011;53739;44.224;22.528;2024-01-15T04:27:12;76.25;;;35.80;;
66830;SDS011;53739;44.224;22.528;2024-01-15T04:29:38;78.97;;;34.45;;
66830;SDS011;53739;44.224;22.528;2024-01-15T04:32:04;79.43;;;32.30;;
66830;SDS011;53739;44.224;22.528;2024-01-15T04:34:31;57.38;;;25.13;;
66830;SDS011;53739;44.224;22.528;2024-01-15T04:36:57;66.13;;;28.45;;
66830;SDS011;53739;44.224;22.528;2024-01-15T04:39:23;86.55;;;38.05;;
66830;SDS011;53739;44.224;22.528;2024-01-15T04:41:49;75.88;;;30.98;;
66830;SDS011;53739;44.224;22.528;2024-01-15T04:44:15;92.78;;;40.28;;
66830;SDS011;53739;44.224;22.528;2024-01-15T04:46:41;66.78;;;28.20;;
66830;SDS011;53739;44.224;22.528;2024-01-15T04:49:09;51.90;;;23.80;;
66830;SDS011;53739;44.224;22.528;2024-01-15T04:51:35;52.03;;;24.73;;
66830;SDS011;53739;44.224;22.528;2024-01-15T04:54:01;56.08;;;26.20;;
66830;SDS011;53739;44.224;22.528;2024-01-15T04:56:27;62.72;;;29.52;;
66830;SDS011;53739;44.224;22.528;2024-01-15T04:58:53;52.13;;;25.75;;
66830;SDS011;53739;44.224;22.528;2024-01-15T05:01:19;59.70;;;28.08;;
66830;SDS011;53739;44.224;22.528;2024-01-15T05:03:45;63.92;;;29.38;;
66830;SDS011;53739;44.224;22.528;2024-01-15T05:06:12;72.18;;;33.85;;
66830;SDS011;53739;44.224;22.528;2024-01-15T05:08:38;77.72;;;36.65;;
66830;SDS011;53739;44.224;22.528;2024-01-15T05:11:04;91.43;;;43.10;;
66830;SDS011;53739;44.224;22.528;2024-01-15T05:13:30;97.72;;;42.13;;
66830;SDS011;53739;44.224;22.528;2024-01-15T05:15:56;87.80;;;43.25;;
66830;SDS011;53739;44.224;22.528;2024-01-15T05:18:22;107.70;;;49.10;;
66830;SDS011;53739;44.224;22.528;2024-01-15T05:20:48;113.63;;;50.83;;
66830;SDS011;53739;44.224;22.528;2024-01-15T05:23:14;164.50;;;58.03;;
66830;SDS011;53739;44.224;22.528;2024-01-15T05:25:40;131.85;;;52.85;;
66830;SDS011;53739;44.224;22.528;2024-01-15T05:28:07;125.22;;;50.40;;
66830;SDS011;53739;44.224;22.528;2024-01-15T05:30:33;113.55;;;49.70;;
66830;SDS011;53739;44.224;22.528;2024-01-15T05:32:59;119.57;;;51.38;;
66830;SDS011;53739;44.224;22.528;2024-01-15T05:35:26;131.02;;;56.65;;
66830;SDS011;53739;44.224;22.528;2024-01-15T05:37:52;122.60;;;51.25;;
66830;SDS011;53739;44.224;22.528;2024-01-15T05:40:18;116.47;;;50.83;;
66830;SDS011;53739;44.224;22.528;2024-01-15T05:42:44;105.32;;;47.78;;
66830;SDS011;53739;44.224;22.528;2024-01-15T05:45:10;124.00;;;55.45;;
66830;SDS011;53739;44.224;22.528;2024-01-15T05:47:36;108.55;;;53.45;;
66830;SDS011;53739;44.224;22.528;2024-01-15T05:50:03;123.20;;;53.22;;
66830;SDS011;53739;44.224;22.528;2024-01-15T05:52:29;111.68;;;49.08;;
66830;SDS011;53739;44.224;22.528;2024-01-15T05:54:55;114.68;;;49.33;;
66830;SDS011;53739;44.224;22.528;2024-01-15T05:57:22;111.82;;;48.60;;
66830;SDS011;53739;44.224;22.528;2024-01-15T05:59:48;115.03;;;51.08;;
66830;SDS011;53739;44.224;22.528;2024-01-15T06:02:14;114.43;;;50.28;;
66830;SDS011;53739;44.224;22.528;2024-01-15T06:04:40;152.35;;;64.15;;
66830;SDS011;53739;44.224;22.528;2024-01-15T06:07:06;156.07;;;69.00;;
66830;SDS011;53739;44.224;22.528;2024-01-15T06:09:32;167.02;;;73.82;;
66830;SDS011;53739;44.224;22.528;2024-01-15T06:11:58;161.20;;;68.88;;
66830;SDS011;53739;44.224;22.528;2024-01-15T06:14:25;168.20;;;73.65;;
66830;SDS011;53739;44.224;22.528;2024-01-15T06:16:51;228.02;;;90.63;;
66830;SDS011;53739;44.224;22.528;2024-01-15T06:19:18;465.90;;;159.27;;
66830;SDS011;53739;44.224;22.528;2024-01-15T06:21:44;380.35;;;145.40;;
66830;SDS011;53739;44.224;22.528;2024-01-15T06:24:10;302.15;;;122.18;;
66830;SDS011;53739;44.224;22.528;2024-01-15T06:26:36;313.50;;;128.00;;
66830;SDS011;53739;44.224;22.528;2024-01-15T06:29:02;320.40;;;129.43;;
66830;SDS011;53739;44.224;22.528;2024-01-15T06:31:28;236.18;;;108.03;;
66830;SDS011;53739;44.224;22.528;2024-01-15T06:33:55;307.55;;;120.57;;
66830;SDS011;53739;44.224;22.528;2024-01-15T06:36:21;247.20;;;105.15;;
66830;SDS011;53739;44.224;22.528;2024-01-15T06:38:47;238.98;;;103.40;;
66830;SDS011;53739;44.224;22.528;2024-01-15T06:41:13;256.10;;;99.95;;
66830;SDS011;53739;44.224;22.528;2024-01-15T06:43:39;243.15;;;103.25;;
66830;SDS011;53739;44.224;22.528;2024-01-15T06:46:05;240.07;;;102.65;;
66830;SDS011;53739;44.224;22.528;2024-01-15T06:48:32;273.48;;;113.45;;
66830;SDS011;53739;44.224;22.528;2024-01-15T06:50:58;269.08;;;113.20;;
66830;SDS011;53739;44.224;22.528;2024-01-15T06:53:24;256.50;;;105.40;;
66830;SDS011;53739;44.224;22.528;2024-01-15T06:55:50;281.60;;;116.53;;
66830;SDS011;53739;44.224;22.528;2024-01-15T06:58:16;285.30;;;124.47;;
66830;SDS011;53739;44.224;22.528;2024-01-15T07:00:42;299.23;;;123.07;;
66830;SDS011;53739;44.224;22.528;2024-01-15T07:03:08;284.95;;;131.10;;
66830;SDS011;53739;44.224;22.528;2024-01-15T07:05:34;292.65;;;132.50;;
66830;SDS011;53739;44.224;22.528;2024-01-15T07:08:02;298.00;;;131.85;;
66830;SDS011;53739;44.224;22.528;2024-01-15T07:10:28;286.15;;;125.03;;
66830;SDS011;53739;44.224;22.528;2024-01-15T07:12:54;222.18;;;106.35;;
66830;SDS011;53739;44.224;22.528;2024-01-15T07:15:20;245.75;;;108.82;;
66830;SDS011;53739;44.224;22.528;2024-01-15T07:17:47;284.00;;;118.43;;
66830;SDS011;53739;44.224;22.528;2024-01-15T07:20:13;229.48;;;103.25;;
66830;SDS011;53739;44.224;22.528;2024-01-15T07:22:39;205.68;;;90.88;;
66830;SDS011;53739;44.224;22.528;2024-01-15T07:25:05;129.90;;;62.88;;
66830;SDS011;53739;44.224;22.528;2024-01-15T07:27:32;71.82;;;39.10;;
66830;SDS011;53739;44.224;22.528;2024-01-15T07:29:58;85.07;;;39.15;;
66830;SDS011;53739;44.224;22.528;2024-01-15T07:32:24;74.55;;;34.10;;
66830;SDS011;53739;44.224;22.528;2024-01-15T07:34:50;80.45;;;37.63;;
66830;SDS011;53739;44.224;22.528;2024-01-15T07:37:16;85.25;;;41.20;;
66830;SDS011;53739;44.224;22.528;2024-01-15T07:39:42;85.30;;;40.53;;
66830;SDS011;53739;44.224;22.528;2024-01-15T07:42:08;85.95;;;41.00;;
66830;SDS011;53739;44.224;22.528;2024-01-15T07:44:35;83.72;;;39.25;;
66830;SDS011;53739;44.224;22.528;2024-01-15T07:47:01;82.68;;;39.75;;
66830;SDS011;53739;44.224;22.528;2024-01-15T07:49:28;122.53;;;52.90;;
66830;SDS011;53739;44.224;22.528;2024-01-15T07:51:54;105.22;;;49.40;;
66830;SDS011;53739;44.224;22.528;2024-01-15T07:54:20;101.05;;;48.55;;
66830;SDS011;53739;44.224;22.528;2024-01-15T07:59:20;136.10;;;55.95;;
66830;SDS011;53739;44.224;22.528;2024-01-15T08:01:46;114.88;;;51.72;;
66830;SDS011;53739;44.224;22.528;2024-01-15T08:04:12;116.10;;;54.03;;
66830;SDS011;53739;44.224;22.528;2024-01-15T08:06:39;98.35;;;46.15;;
66830;SDS011;53739;44.224;22.528;2024-01-15T08:09:05;133.75;;;55.95;;
66830;SDS011;53739;44.224;22.528;2024-01-15T08:11:31;113.90;;;56.22;;
66830;SDS011;53739;44.224;22.528;2024-01-15T08:13:57;101.05;;;48.85;;
66830;SDS011;53739;44.224;22.528;2024-01-15T08:16:23;93.32;;;46.60;;
66830;SDS011;53739;44.224;22.528;2024-01-15T08:18:50;103.90;;;46.33;;
66830;SDS011;53739;44.224;22.528;2024-01-15T08:21:16;95.55;;;42.78;;
66830;SDS011;53739;44.224;22.528;2024-01-15T08:23:42;84.43;;;39.65;;
66830;SDS011;53739;44.224;22.528;2024-01-15T08:26:08;68.97;;;33.92;;
66830;SDS011;53739;44.224;22.528;2024-01-15T08:28:34;88.35;;;38.53;;
66830;SDS011;53739;44.224;22.528;2024-01-15T08:31:00;98.47;;;42.08;;
66830;SDS011;53739;44.224;22.528;2024-01-15T08:33:28;107.07;;;43.13;;
66830;SDS011;53739;44.224;22.528;2024-01-15T08:35:54;85.40;;;42.05;;
66830;SDS011;53739;44.224;22.528;2024-01-15T08:38:20;114.07;;;53.10;;
66830;SDS011;53739;44.224;22.528;2024-01-15T08:40:46;100.43;;;48.78;;
66830;SDS011;53739;44.224;22.528;2024-01-15T08:43:12;182.52;;;73.57;;
66830;SDS011;53739;44.224;22.528;2024-01-15T08:45:38;216.38;;;90.15;;
66830;SDS011;53739;44.224;22.528;2024-01-15T08:48:04;171.23;;;75.25;;
66830;SDS011;53739;44.224;22.528;2024-01-15T08:50:31;134.80;;;59.85;;
66830;SDS011;53739;44.224;22.528;2024-01-15T08:52:58;122.40;;;55.50;;
66830;SDS011;53739;44.224;22.528;2024-01-15T08:55:24;133.05;;;61.08;;
66830;SDS011;53739;44.224;22.528;2024-01-15T08:57:50;113.90;;;54.80;;
66830;SDS011;53739;44.224;22.528;2024-01-15T09:00:17;139.20;;;65.35;;
66830;SDS011;53739;44.224;22.528;2024-01-15T09:02:43;137.52;;;68.20;;
66830;SDS011;53739;44.224;22.528;2024-01-15T09:05:10;127.93;;;63.58;;
66830;SDS011;53739;44.224;22.528;2024-01-15T09:07:36;151.23;;;72.47;;
66830;SDS011;53739;44.224;22.528;2024-01-15T09:10:02;136.57;;;67.65;;
66830;SDS011;53739;44.224;22.528;2024-01-15T09:12:28;142.07;;;69.82;;
66830;SDS011;53739;44.224;22.528;2024-01-15T09:14:54;157.95;;;77.25;;
66830;SDS011;53739;44.224;22.528;2024-01-15T09:17:21;188.90;;;88.97;;
66830;SDS011;53739;44.224;22.528;2024-01-15T09:19:48;193.75;;;94.47;;
66830;SDS011;53739;44.224;22.528;2024-01-15T09:22:15;195.15;;;94.65;;
66830;SDS011;53739;44.224;22.528;2024-01-15T09:24:45;199.30;;;91.63;;
66830;SDS011;53739;44.224;22.528;2024-01-15T09:27:11;198.45;;;92.78;;
66830;SDS011;53739;44.224;22.528;2024-01-15T09:29:37;191.32;;;91.05;;
66830;SDS011;53739;44.224;22.528;2024-01-15T09:32:05;184.18;;;89.75;;
66830;SDS011;53739;44.224;22.528;2024-01-15T09:34:32;208.98;;;98.28;;
66830;SDS011;53739;44.224;22.528;2024-01-15T09:36:58;215.38;;;99.75;;
66830;SDS011;53739;44.224;22.528;2024-01-15T09:39:25;214.95;;;101.88;;
66830;SDS011;53739;44.224;22.528;2024-01-15T09:41:52;195.18;;;99.97;;
66830;SDS011;53739;44.224;22.528;2024-01-15T09:44:19;151.40;;;73.35;;
66830;SDS011;53739;44.224;22.528;2024-01-15T09:46:45;137.95;;;66.95;;
66830;SDS011;53739;44.224;22.528;2024-01-15T09:49:11;127.03;;;57.85;;
66830;SDS011;53739;44.224;22.528;2024-01-15T09:51:37;115.97;;;56.90;;
66830;SDS011;53739;44.224;22.528;2024-01-15T09:54:04;111.22;;;55.90;;
66830;SDS011;53739;44.224;22.528;2024-01-15T09:56:30;97.65;;;50.47;;
66830;SDS011;53739;44.224;22.528;2024-01-15T09:58:57;102.68;;;51.80;;
66830;SDS011;53739;44.224;22.528;2024-01-15T10:01:23;100.55;;;54.42;;
66830;SDS011;53739;44.224;22.528;2024-01-15T10:03:50;100.00;;;50.15;;
66830;SDS011;53739;44.224;22.528;2024-01-15T10:06:16;81.47;;;43.33;;
66830;SDS011;53739;44.224;22.528;2024-01-15T10:08:43;78.93;;;40.72;;
66830;SDS011;53739;44.224;22.528;2024-01-15T10:11:13;75.78;;;40.80;;
66830;SDS011;53739;44.224;22.528;2024-01-15T10:13:39;78.75;;;40.35;;
66830;SDS011;53739;44.224;22.528;2024-01-15T10:16:05;126.10;;;63.75;;
66830;SDS011;53739;44.224;22.528;2024-01-15T10:18:32;66.05;;;33.05;;
66830;SDS011;53739;44.224;22.528;2024-01-15T10:20:58;139.38;;;69.50;;
66830;SDS011;53739;44.224;22.528;2024-01-15T10:23:24;104.25;;;54.55;;
66830;SDS011;53739;44.224;22.528;2024-01-15T10:25:50;125.88;;;64.35;;
66830;SDS011;53739;44.224;22.528;2024-01-15T10:28:17;76.15;;;40.42;;
66830;SDS011;53739;44.224;22.528;2024-01-15T10:30:44;116.45;;;60.88;;
66830;SDS011;53739;44.224;22.528;2024-01-15T10:33:10;78.78;;;42.00;;
66830;SDS011;53739;44.224;22.528;2024-01-15T10:35:37;51.35;;;29.98;;
66830;SDS011;53739;44.224;22.528;2024-01-15T10:38:04;50.83;;;25.65;;
66830;SDS011;53739;44.224;22.528;2024-01-15T10:40:31;46.92;;;22.63;;
66830;SDS011;53739;44.224;22.528;2024-01-15T10:42:58;42.83;;;23.58;;
66830;SDS011;53739;44.224;22.528;2024-01-15T10:45:24;51.58;;;26.15;;
66830;SDS011;53739;44.224;22.528;2024-01-15T10:47:50;41.05;;;21.02;;
66830;SDS011;53739;44.224;22.528;2024-01-15T10:50:16;44.00;;;22.58;;
66830;SDS011;53739;44.224;22.528;2024-01-15T10:52:43;50.05;;;25.17;;
66830;SDS011;53739;44.224;22.528;2024-01-15T10:55:09;50.15;;;23.08;;
66830;SDS011;53739;44.224;22.528;2024-01-15T10:57:39;44.45;;;23.23;;
66830;SDS011;53739;44.224;22.528;2024-01-15T11:00:05;53.15;;;27.52;;
66830;SDS011;53739;44.224;22.528;2024-01-15T11:02:35;48.53;;;25.27;;
66830;SDS011;53739;44.224;22.528;2024-01-15T11:05:02;51.38;;;26.58;;
66830;SDS011;53739;44.224;22.528;2024-01-15T11:07:29;54.70;;;28.48;;
66830;SDS011;53739;44.224;22.528;2024-01-15T11:09:56;39.70;;;20.55;;
66830;SDS011;53739;44.224;22.528;2024-01-15T11:12:25;28.75;;;16.27;;
66830;SDS011;53739;44.224;22.528;2024-01-15T11:14:51;41.58;;;23.45;;
66830;SDS011;53739;44.224;22.528;2024-01-15T11:17:19;48.40;;;24.55;;
66830;SDS011;53739;44.224;22.528;2024-01-15T11:19:46;45.83;;;23.80;;
66830;SDS011;53739;44.224;22.528;2024-01-15T11:25:12;40.53;;;22.48;;
66830;SDS011;53739;44.224;22.528;2024-01-15T11:27:42;53.97;;;24.25;;
66830;SDS011;53739;44.224;22.528;2024-01-15T11:30:10;63.92;;;30.70;;
66830;SDS011;53739;44.224;22.528;2024-01-15T11:32:37;69.03;;;32.50;;
66830;SDS011;53739;44.224;22.528;2024-01-15T11:35:06;46.75;;;23.23;;
66830;SDS011;53739;44.224;22.528;2024-01-15T11:42:48;86.70;;;36.83;;
66830;SDS011;53739;44.224;22.528;2024-01-15T11:45:18;45.13;;;22.33;;
66830;SDS011;53739;44.224;22.528;2024-01-15T11:50:11;44.38;;;21.83;;
66830;SDS011;53739;44.224;22.528;2024-01-15T11:52:38;43.40;;;23.15;;
66830;SDS011;53739;44.224;22.528;2024-01-15T11:55:19;43.65;;;22.73;;
66830;SDS011;53739;44.224;22.528;2024-01-15T11:57:46;41.25;;;21.20;;
66830;SDS011;53739;44.224;22.528;2024-01-15T12:00:13;34.67;;;20.75;;
66830;SDS011;53739;44.224;22.528;2024-01-15T12:02:40;40.97;;;21.67;;
66830;SDS011;53739;44.224;22.528;2024-01-15T12:05:07;39.20;;;21.67;;
66830;SDS011;53739;44.224;22.528;2024-01-15T12:07:33;60.80;;;34.03;;
66830;SDS011;53739;44.224;22.528;2024-01-15T12:10:00;52.92;;;28.98;;
66830;SDS011;53739;44.224;22.528;2024-01-15T12:15:07;51.47;;;25.10;;
66830;SDS011;53739;44.224;22.528;2024-01-15T12:17:34;51.63;;;25.08;;
66830;SDS011;53739;44.224;22.528;2024-01-15T12:20:00;45.08;;;21.73;;
66830;SDS011;53739;44.224;22.528;2024-01-15T12:22:26;51.47;;;24.45;;
66830;SDS011;53739;44.224;22.528;2024-01-15T12:24:53;49.60;;;25.75;;
66830;SDS011;53739;44.224;22.528;2024-01-15T12:27:20;40.15;;;21.00;;
66830;SDS011;53739;44.224;22.528;2024-01-15T12:29:46;43.15;;;21.55;;
66830;SDS011;53739;44.224;22.528;2024-01-15T12:32:12;48.72;;;26.30;;
66830;SDS011;53739;44.224;22.528;2024-01-15T12:34:38;39.28;;;21.75;;
66830;SDS011;53739;44.224;22.528;2024-01-15T12:37:06;59.65;;;30.65;;
66830;SDS011;53739;44.224;22.528;2024-01-15T12:39:34;52.20;;;28.05;;
66830;SDS011;53739;44.224;22.528;2024-01-15T12:42:01;64.68;;;34.72;;
66830;SDS011;53739;44.224;22.528;2024-01-15T12:44:28;71.22;;;36.03;;
66830;SDS011;53739;44.224;22.528;2024-01-15T12:46:54;88.57;;;39.03;;
66830;SDS011;53739;44.224;22.528;2024-01-15T12:49:21;56.85;;;32.22;;
66830;SDS011;53739;44.224;22.528;2024-01-15T12:51:53;53.22;;;25.42;;
66830;SDS011;53739;44.224;22.528;2024-01-15T12:54:20;42.45;;;21.80;;
66830;SDS011;53739;44.224;22.528;2024-01-15T12:56:47;40.97;;;21.15;;
66830;SDS011;53739;44.224;22.528;2024-01-15T12:59:13;86.57;;;37.97;;
66830;SDS011;53739;44.224;22.528;2024-01-15T13:01:39;41.92;;;21.20;;
66830;SDS011;53739;44.224;22.528;2024-01-15T13:04:06;52.00;;;24.63;;
66830;SDS011;53739;44.224;22.528;2024-01-15T13:06:36;45.83;;;23.55;;
66830;SDS011;53739;44.224;22.528;2024-01-15T13:09:05;48.08;;;23.33;;
66830;SDS011;53739;44.224;22.528;2024-01-15T13:11:31;110.47;;;49.50;;
66830;SDS011;53739;44.224;22.528;2024-01-15T13:13:58;66.78;;;32.30;;
66830;SDS011;53739;44.224;22.528;2024-01-15T13:16:24;52.78;;;26.48;;
66830;SDS011;53739;44.224;22.528;2024-01-15T13:18:53;53.83;;;25.63;;
66830;SDS011;53739;44.224;22.528;2024-01-15T13:21:20;50.60;;;24.98;;
66830;SDS011;53739;44.224;22.528;2024-01-15T13:23:46;46.30;;;24.13;;
66830;SDS011;53739;44.224;22.528;2024-01-15T13:26:12;43.65;;;23.27;;
66830;SDS011;53739;44.224;22.528;2024-01-15T13:28:39;52.35;;;25.35;;
66830;SDS011;53739;44.224;22.528;2024-01-15T13:31:05;49.28;;;27.63;;
66830;SDS011;53739;44.224;22.528;2024-01-15T13:33:31;51.45;;;25.42;;
66830;SDS011;53739;44.224;22.528;2024-01-15T13:35:57;84.82;;;38.95;;
66830;SDS011;53739;44.224;22.528;2024-01-15T13:38:24;91.57;;;41.70;;
66830;SDS011;53739;44.224;22.528;2024-01-15T13:40:50;65.30;;;33.42;;
66830;SDS011;53739;44.224;22.528;2024-01-15T13:43:19;69.43;;;32.88;;
66830;SDS011;53739;44.224;22.528;2024-01-15T13:45:45;160.07;;;64.25;;
66830;SDS011;53739;44.224;22.528;2024-01-15T13:48:11;239.57;;;98.93;;
66830;SDS011;53739;44.224;22.528;2024-01-15T13:50:37;94.18;;;44.85;;
66830;SDS011;53739;44.224;22.528;2024-01-15T13:53:03;41.67;;;22.05;;
66830;SDS011;53739;44.224;22.528;2024-01-15T13:55:30;115.05;;;39.75;;
66830;SDS011;53739;44.224;22.528;2024-01-15T13:57:56;82.40;;;36.67;;
66830;SDS011;53739;44.224;22.528;2024-01-15T14:00:28;323.13;;;126.20;;
66830;SDS011;53739;44.224;22.528;2024-01-15T14:02:54;217.20;;;90.97;;
66830;SDS011;53739;44.224;22.528;2024-01-15T14:05:20;130.98;;;54.17;;
66830;SDS011;53739;44.224;22.528;2024-01-15T14:07:46;91.00;;;46.58;;
66830;SDS011;53739;44.224;22.528;2024-01-15T14:10:12;78.72;;;41.20;;
66830;SDS011;53739;44.224;22.528;2024-01-15T14:12:38;73.38;;;38.17;;